sensor_id;sensor_type;location;lat;lon;timestamp;pressure;altitude;pressure_sealevel;temperature;humidity
50977;BME280;36992;48.200;12.418;2023-03-26T00:00:40;96271.41;;;11.88;43.25
50977;BME280;36992;48.200;12.418;2023-03-26T00:03:08;96263.94;;;11.85;43.27
50977;BME280;36992;48.200;12.418;2023-03-26T00:05:36;96263.94;;;11.85;43.42
50977;BME280;36992;48.200;12.418;2023-03-26T00:08:02;96274.75;;;11.85;42.88
50977;BME280;36992;48.200;12.418;2023-03-26T00:10:29;96262.34;;;11.84;42.73
50977;BME280;36992;48.200;12.418;2023-03-26T00:12:57;96268.22;;;11.86;43.47
50977;BME280;36992;48.200;12.418;2023-03-26T00:15:23;96268.88;;;11.83;43.36
50977;BME280;36992;48.200;12.418;2023-03-26T00:17:50;96271.56;;;11.83;43.30
50977;BME280;36992;48.200;12.418;2023-03-26T00:20:18;96269.94;;;11.82;43.25
50977;BME280;36992;48.200;12.418;2023-03-26T00:22:45;96272.16;;;11.80;43.01
50977;BME280;36992;48.200;12.418;2023-03-26T00:25:12;96267.88;;;11.79;43.09
50977;BME280;36992;48.200;12.418;2023-03-26T00:27:39;96265.19;;;11.79;43.12
50977;BME280;36992;48.200;12.418;2023-03-26T00:30:08;96254.38;;;11.79;43.15
50977;BME280;36992;48.200;12.418;2023-03-26T00:32:35;96253.41;;;11.74;43.10
50977;BME280;36992;48.200;12.418;2023-03-26T00:35:01;96254.22;;;11.75;43.19
50977;BME280;36992;48.200;12.418;2023-03-26T00:37:28;96250.72;;;11.74;43.10
50977;BME280;36992;48.200;12.418;2023-03-26T00:39:56;96244.22;;;11.76;43.67
50977;BME280;36992;48.200;12.418;2023-03-26T00:42:31;96236.09;;;11.76;43.79
50977;BME280;36992;48.200;12.418;2023-03-26T00:44:57;96234.53;;;11.74;43.48
50977;BME280;36992;48.200;12.418;2023-03-26T00:47:27;96228.53;;;11.78;43.40
50977;BME280;36992;48.200;12.418;2023-03-26T00:49:54;96226.44;;;11.74;43.49
50977;BME280;36992;48.200;12.418;2023-03-26T00:52:22;96231.53;;;11.76;43.83
50977;BME280;36992;48.200;12.418;2023-03-26T00:54:50;96228.53;;;11.78;43.58
50977;BME280;36992;48.200;12.418;2023-03-26T00:57:18;96225.00;;;11.77;44.13
50977;BME280;36992;48.200;12.418;2023-03-26T00:59:46;96223.13;;;11.78;44.09
50977;BME280;36992;48.200;12.418;2023-03-26T01:02:15;96219.78;;;11.81;44.04
50977;BME280;36992;48.200;12.418;2023-03-26T01:04:46;96221.06;;;11.83;43.72
50977;BME280;36992;48.200;12.418;2023-03-26T01:07:15;96213.78;;;11.84;44.17
50977;BME280;36992;48.200;12.418;2023-03-26T01:09:46;96219.47;;;11.82;43.85
50977;BME280;36992;48.200;12.418;2023-03-26T01:12:17;96210.78;;;11.85;43.97
50977;BME280;36992;48.200;12.418;2023-03-26T01:14:45;96217.09;;;11.81;43.62
50977;BME280;36992;48.200;12.418;2023-03-26T01:17:13;96215.50;;;11.80;43.73
50977;BME280;36992;48.200;12.418;2023-03-26T01:19:47;96213.28;;;11.82;43.70
50977;BME280;36992;48.200;12.418;2023-03-26T01:22:17;96216.13;;;11.77;43.50
50977;BME280;36992;48.200;12.418;2023-03-26T01:24:46;96218.84;;;11.77;43.49
50977;BME280;36992;48.200;12.418;2023-03-26T01:27:26;96211.81;;;11.76;43.39
50977;BME280;36992;48.200;12.418;2023-03-26T01:30:02;96207.88;;;11.73;43.56
50977;BME280;36992;48.200;12.418;2023-03-26T01:32:41;96210.88;;;11.71;43.62
50977;BME280;36992;48.200;12.418;2023-03-26T01:35:28;96209.91;;;11.67;43.41
50977;BME280;36992;48.200;12.418;2023-03-26T01:38:04;96213.72;;;11.66;43.50
50977;BME280;36992;48.200;12.418;2023-03-26T01:40:47;96200.53;;;11.65;43.60
50977;BME280;36992;48.200;12.418;2023-03-26T01:43:24;96193.53;;;11.64;43.84
50977;BME280;36992;48.200;12.418;2023-03-26T01:45:55;96197.19;;;11.59;43.97
50977;BME280;36992;48.200;12.418;2023-03-26T01:48:28;96207.97;;;11.59;43.87
50977;BME280;36992;48.200;12.418;2023-03-26T01:50:55;96204.75;;;11.57;44.16
50977;BME280;36992;48.200;12.418;2023-03-26T01:53:23;96213.97;;;11.56;44.33
50977;BME280;36992;48.200;12.418;2023-03-26T01:55:58;96221.16;;;11.60;43.95
50977;BME280;36992;48.200;12.418;2023-03-26T01:58:33;96217.16;;;11.58;44.08
50977;BME280;36992;48.200;12.418;2023-03-26T02:01:10;96220.34;;;11.60;44.04
50977;BME280;36992;48.200;12.418;2023-03-26T02:03:44;96222.88;;;11.56;44.02
50977;BME280;36992;48.200;12.418;2023-03-26T02:06:17;96213.38;;;11.59;44.02
50977;BME280;36992;48.200;12.418;2023-03-26T02:08:49;96211.78;;;11.58;43.92
50977;BME280;36992;48.200;12.418;2023-03-26T02:11:19;96206.38;;;11.58;44.13
50977;BME280;36992;48.200;12.418;2023-03-26T02:13:46;96208.56;;;11.56;43.98
50977;BME280;36992;48.200;12.418;2023-03-26T02:16:15;96210.16;;;11.57;44.06
50977;BME280;36992;48.200;12.418;2023-03-26T02:18:43;96205.09;;;11.55;43.98
50977;BME280;36992;48.200;12.418;2023-03-26T02:21:11;96210.16;;;11.57;44.22
50977;BME280;36992;48.200;12.418;2023-03-26T02:23:39;96207.00;;;11.55;44.01
50977;BME280;36992;48.200;12.418;2023-03-26T02:26:08;96207.00;;;11.55;43.80
50977;BME280;36992;48.200;12.418;2023-03-26T02:28:37;96204.75;;;11.57;43.83
50977;BME280;36992;48.200;12.418;2023-03-26T02:31:04;96198.91;;;11.55;43.95
50977;BME280;36992;48.200;12.418;2023-03-26T02:33:34;96196.19;;;11.55;44.09
50977;BME280;36992;48.200;12.418;2023-03-26T02:36:01;96201.59;;;11.55;43.98
50977;BME280;36992;48.200;12.418;2023-03-26T02:38:28;96200.81;;;11.54;43.79
50977;BME280;36992;48.200;12.418;2023-03-26T02:40:58;96206.50;;;11.53;44.11
50977;BME280;36992;48.200;12.418;2023-03-26T02:43:24;96206.81;;;11.51;44.27
50977;BME280;36992;48.200;12.418;2023-03-26T02:45:52;96196.84;;;11.52;44.15
50977;BME280;36992;48.200;12.418;2023-03-26T02:48:19;96200.94;;;11.49;44.12
50977;BME280;36992;48.200;12.418;2023-03-26T02:50:46;96202.06;;;11.48;44.07
50977;BME280;36992;48.200;12.418;2023-03-26T02:53:14;96195.03;;;11.47;44.48
50977;BME280;36992;48.200;12.418;2023-03-26T02:55:41;96198.06;;;11.45;44.25
50977;BME280;36992;48.200;12.418;2023-03-26T02:58:08;96199.97;;;11.45;44.48
50977;BME280;36992;48.200;12.418;2023-03-26T03:00:35;96186.00;;;11.43;44.38
50977;BME280;36992;48.200;12.418;2023-03-26T03:03:03;96184.59;;;11.45;44.43
50977;BME280;36992;48.200;12.418;2023-03-26T03:05:32;96181.38;;;11.43;44.76
50977;BME280;36992;48.200;12.418;2023-03-26T03:07:59;96177.09;;;11.42;44.50
50977;BME280;36992;48.200;12.418;2023-03-26T03:10:26;96174.88;;;11.44;44.50
50977;BME280;36992;48.200;12.418;2023-03-26T03:12:57;96167.13;;;11.43;44.52
50977;BME280;36992;48.200;12.418;2023-03-26T03:15:23;96170.13;;;11.41;44.75
50977;BME280;36992;48.200;12.418;2023-03-26T03:17:50;96166.31;;;11.42;44.70
50977;BME280;36992;48.200;12.418;2023-03-26T03:20:18;96168.72;;;11.44;44.89
50977;BME280;36992;48.200;12.418;2023-03-26T03:22:46;96165.53;;;11.42;44.93
50977;BME280;36992;48.200;12.418;2023-03-26T03:25:12;96161.72;;;11.43;44.93
50977;BME280;36992;48.200;12.418;2023-03-26T03:27:42;96154.41;;;11.43;44.98
50977;BME280;36992;48.200;12.418;2023-03-26T03:30:10;96161.91;;;11.46;44.85
50977;BME280;36992;48.200;12.418;2023-03-26T03:32:38;96154.13;;;11.45;44.84
50977;BME280;36992;48.200;12.418;2023-03-26T03:35:05;96156.00;;;11.44;45.06
50977;BME280;36992;48.200;12.418;2023-03-26T03:37:33;96152.69;;;11.47;44.84
50977;BME280;36992;48.200;12.418;2023-03-26T03:39:59;96139.53;;;11.46;45.24
50977;BME280;36992;48.200;12.418;2023-03-26T03:42:26;96141.09;;;11.47;45.10
50977;BME280;36992;48.200;12.418;2023-03-26T03:44:53;96144.59;;;11.47;45.30
50977;BME280;36992;48.200;12.418;2023-03-26T03:47:19;96142.72;;;11.48;45.36
50977;BME280;36992;48.200;12.418;2023-03-26T03:49:47;96144.59;;;11.47;44.94
50977;BME280;36992;48.200;12.418;2023-03-26T03:52:13;96132.72;;;11.49;45.13
50977;BME280;36992;48.200;12.418;2023-03-26T03:54:41;96129.72;;;11.50;45.17
50977;BME280;36992;48.200;12.418;2023-03-26T03:57:08;96133.53;;;11.49;45.20
50977;BME280;36992;48.200;12.418;2023-03-26T03:59:35;96128.91;;;11.50;45.47
50977;BME280;36992;48.200;12.418;2023-03-26T04:02:01;96134.28;;;11.50;45.25
50977;BME280;36992;48.200;12.418;2023-03-26T04:04:28;96123.50;;;11.50;45.30
50977;BME280;36992;48.200;12.418;2023-03-26T04:06:56;96127.31;;;11.49;45.44
50977;BME280;36992;48.200;12.418;2023-03-26T04:09:23;96125.44;;;11.49;45.29
50977;BME280;36992;48.200;12.418;2023-03-26T04:11:51;96121.63;;;11.50;45.29
50977;BME280;36992;48.200;12.418;2023-03-26T04:14:18;96114.94;;;11.47;45.38
50977;BME280;36992;48.200;12.418;2023-03-26T04:16:45;96121.16;;;11.48;45.56
50977;BME280;36992;48.200;12.418;2023-03-26T04:19:13;96117.63;;;11.47;45.49
50977;BME280;36992;48.200;12.418;2023-03-26T04:21:40;96116.06;;;11.46;45.26
50977;BME280;36992;48.200;12.418;2023-03-26T04:24:07;96116.06;;;11.46;45.33
50977;BME280;36992;48.200;12.418;2023-03-26T04:26:34;96111.78;;;11.45;45.32
50977;BME280;36992;48.200;12.418;2023-03-26T04:29:03;96116.53;;;11.49;45.15
50977;BME280;36992;48.200;12.418;2023-03-26T04:31:36;96111.78;;;11.45;45.11
50977;BME280;36992;48.200;12.418;2023-03-26T04:34:06;96115.75;;;11.48;45.08
50977;BME280;36992;48.200;12.418;2023-03-26T04:36:37;96108.56;;;11.43;45.09
50977;BME280;36992;48.200;12.418;2023-03-26T04:39:09;96107.16;;;11.46;45.13
50977;BME280;36992;48.200;12.418;2023-03-26T04:41:37;96100.00;;;11.41;45.13
50977;BME280;36992;48.200;12.418;2023-03-26T04:44:05;96105.41;;;11.41;45.17
50977;BME280;36992;48.200;12.418;2023-03-26T04:46:32;96102.84;;;11.36;45.33
50977;BME280;36992;48.200;12.418;2023-03-26T04:48:59;96111.25;;;11.34;45.37
50977;BME280;36992;48.200;12.418;2023-03-26T04:51:33;96105.53;;;11.36;45.13
50977;BME280;36992;48.200;12.418;2023-03-26T04:54:03;96109.94;;;11.32;45.35
50977;BME280;36992;48.200;12.418;2023-03-26T04:56:38;96107.75;;;11.34;45.15
50977;BME280;36992;48.200;12.418;2023-03-26T04:59:10;96101.09;;;11.31;45.58
50977;BME280;36992;48.200;12.418;2023-03-26T05:01:39;96099.81;;;11.29;45.46
50977;BME280;36992;48.200;12.418;2023-03-26T05:04:06;96100.91;;;11.28;45.38
50977;BME280;36992;48.200;12.418;2023-03-26T05:06:32;96106.31;;;11.28;45.54
50977;BME280;36992;48.200;12.418;2023-03-26T05:08:59;96099.34;;;11.27;45.53
50977;BME280;36992;48.200;12.418;2023-03-26T05:11:26;96093.13;;;11.26;45.78
50977;BME280;36992;48.200;12.418;2023-03-26T05:13:53;96090.13;;;11.28;45.56
50977;BME280;36992;48.200;12.418;2023-03-26T05:16:23;96082.53;;;11.30;45.43
50977;BME280;36992;48.200;12.418;2023-03-26T05:18:50;96073.97;;;11.28;45.45
50977;BME280;36992;48.200;12.418;2023-03-26T05:21:17;96074.72;;;11.28;45.77
50977;BME280;36992;48.200;12.418;2023-03-26T05:23:43;96075.53;;;11.29;45.61
50977;BME280;36992;48.200;12.418;2023-03-26T05:26:10;96069.03;;;11.30;45.79
50977;BME280;36992;48.200;12.418;2023-03-26T05:28:37;96071.72;;;11.30;45.62
50977;BME280;36992;48.200;12.418;2023-03-26T05:31:03;96070.31;;;11.32;45.87
50977;BME280;36992;48.200;12.418;2023-03-26T05:33:32;96072.72;;;11.34;45.71
50977;BME280;36992;48.200;12.418;2023-03-26T05:35:59;96066.50;;;11.33;45.51
50977;BME280;36992;48.200;12.418;2023-03-26T05:38:27;96060.81;;;11.35;45.63
50977;BME280;36992;48.200;12.418;2023-03-26T05:40:57;96053.69;;;11.39;45.63
50977;BME280;36992;48.200;12.418;2023-03-26T05:43:23;96057.47;;;11.38;45.85
50977;BME280;36992;48.200;12.418;2023-03-26T05:45:50;96057.47;;;11.38;45.74
50977;BME280;36992;48.200;12.418;2023-03-26T05:48:16;96052.56;;;11.40;45.64
50977;BME280;36992;48.200;12.418;2023-03-26T05:50:46;96049.75;;;11.45;45.45
50977;BME280;36992;48.200;12.418;2023-03-26T05:53:13;96049.25;;;11.43;45.78
50977;BME280;36992;48.200;12.418;2023-03-26T05:55:40;96056.22;;;11.44;45.57
50977;BME280;36992;48.200;12.418;2023-03-26T05:58:06;96054.81;;;11.47;45.67
50977;BME280;36992;48.200;12.418;2023-03-26T06:00:33;96049.41;;;11.47;45.71
50977;BME280;36992;48.200;12.418;2023-03-26T06:03:02;96044.81;;;11.47;45.64
50977;BME280;36992;48.200;12.418;2023-03-26T06:05:31;96044.97;;;11.51;45.55
50977;BME280;36992;48.200;12.418;2023-03-26T06:07:59;96045.78;;;11.52;45.36
50977;BME280;36992;48.200;12.418;2023-03-26T06:10:26;96040.69;;;11.50;45.64
50977;BME280;36992;48.200;12.418;2023-03-26T06:12:53;96035.00;;;11.52;45.67
50977;BME280;36992;48.200;12.418;2023-03-26T06:15:20;96028.97;;;11.55;45.75
50977;BME280;36992;48.200;12.418;2023-03-26T06:17:46;96018.97;;;11.55;45.70
50977;BME280;36992;48.200;12.418;2023-03-26T06:20:13;96011.34;;;11.57;45.66
50977;BME280;36992;48.200;12.418;2023-03-26T06:22:40;95994.38;;;11.57;45.57
50977;BME280;36992;48.200;12.418;2023-03-26T06:25:08;95999.16;;;11.60;45.77
50977;BME280;36992;48.200;12.418;2023-03-26T06:27:35;95996.44;;;11.60;45.67
50977;BME280;36992;48.200;12.418;2023-03-26T06:30:02;95990.75;;;11.62;45.87
50977;BME280;36992;48.200;12.418;2023-03-26T06:32:28;95993.09;;;11.63;45.92
50977;BME280;36992;48.200;12.418;2023-03-26T06:34:55;95985.50;;;11.65;46.42
50977;BME280;36992;48.200;12.418;2023-03-26T06:37:21;95979.47;;;11.68;46.30
50977;BME280;36992;48.200;12.418;2023-03-26T06:39:48;95981.03;;;11.69;45.96
50977;BME280;36992;48.200;12.418;2023-03-26T06:42:16;95983.59;;;11.74;46.35
50977;BME280;36992;48.200;12.418;2023-03-26T06:44:43;95983.59;;;11.74;46.60
50977;BME280;36992;48.200;12.418;2023-03-26T06:47:10;95974.38;;;11.76;46.26
50977;BME280;36992;48.200;12.418;2023-03-26T06:49:36;95972.94;;;11.78;46.01
50977;BME280;36992;48.200;12.418;2023-03-26T06:52:03;95965.66;;;11.79;46.40
50977;BME280;36992;48.200;12.418;2023-03-26T06:54:30;95959.63;;;11.82;46.44
50977;BME280;36992;48.200;12.418;2023-03-26T06:56:57;95968.50;;;11.82;46.26
50977;BME280;36992;48.200;12.418;2023-03-26T06:59:25;95966.28;;;11.84;46.06
50977;BME280;36992;48.200;12.418;2023-03-26T07:01:52;95971.69;;;11.84;46.52
50977;BME280;36992;48.200;12.418;2023-03-26T07:04:18;95963.28;;;11.86;46.53
50977;BME280;36992;48.200;12.418;2023-03-26T07:06:45;95970.25;;;11.87;46.67
50977;BME280;36992;48.200;12.418;2023-03-26T07:09:11;95971.84;;;11.88;46.26
50977;BME280;36992;48.200;12.418;2023-03-26T07:11:37;95958.34;;;11.88;46.53
50977;BME280;36992;48.200;12.418;2023-03-26T07:14:04;95958.03;;;11.90;47.16
50977;BME280;36992;48.200;12.418;2023-03-26T07:16:32;95951.19;;;11.92;46.84
50977;BME280;36992;48.200;12.418;2023-03-26T07:18:58;95946.13;;;11.91;47.00
50977;BME280;36992;48.200;12.418;2023-03-26T07:21:25;95938.03;;;11.91;46.72
50977;BME280;36992;48.200;12.418;2023-03-26T07:23:52;95938.03;;;11.91;46.76
50977;BME280;36992;48.200;12.418;2023-03-26T07:26:25;95934.38;;;11.95;46.41
50977;BME280;36992;48.200;12.418;2023-03-26T07:28:59;95934.03;;;11.97;46.67
50977;BME280;36992;48.200;12.418;2023-03-26T07:31:33;95924.50;;;11.99;46.69
50977;BME280;36992;48.200;12.418;2023-03-26T07:34:10;95913.09;;;12.03;46.68
50977;BME280;36992;48.200;12.418;2023-03-26T07:36:48;95901.66;;;12.06;46.57
50977;BME280;36992;48.200;12.418;2023-03-26T07:39:29;95906.44;;;12.09;46.32
50977;BME280;36992;48.200;12.418;2023-03-26T07:42:04;95901.03;;;12.09;46.55
50977;BME280;36992;48.200;12.418;2023-03-26T07:44:49;95903.56;;;12.14;46.20
50977;BME280;36992;48.200;12.418;2023-03-26T07:47:22;95899.75;;;12.15;46.45
50977;BME280;36992;48.200;12.418;2023-03-26T07:49:52;95898.75;;;12.28;45.52
50977;BME280;36992;48.200;12.418;2023-03-26T07:52:20;95896.38;;;12.18;46.95
50977;BME280;36992;48.200;12.418;2023-03-26T07:54:47;95893.69;;;12.18;46.68
50977;BME280;36992;48.200;12.418;2023-03-26T07:57:18;95883.84;;;12.22;46.96
50977;BME280;36992;48.200;12.418;2023-03-26T07:59:50;95869.22;;;12.23;46.89
50977;BME280;36992;48.200;12.418;2023-03-26T08:02:43;95858.56;;;12.27;46.35
50977;BME280;36992;48.200;12.418;2023-03-26T08:05:23;95859.38;;;12.27;46.32
50977;BME280;36992;48.200;12.418;2023-03-26T08:07:57;95857.78;;;12.26;46.85
50977;BME280;36992;48.200;12.418;2023-03-26T08:10:32;95854.75;;;12.28;46.67
50977;BME280;36992;48.200;12.418;2023-03-26T08:13:12;95839.81;;;12.31;47.68
50977;BME280;36992;48.200;12.418;2023-03-26T08:15:45;95837.91;;;12.31;47.43
50977;BME280;36992;48.200;12.418;2023-03-26T08:18:28;95824.88;;;12.33;47.15
50977;BME280;36992;48.200;12.418;2023-03-26T08:20:59;95820.25;;;12.34;47.24
50977;BME280;36992;48.200;12.418;2023-03-26T08:23:35;95812.63;;;12.36;47.20
50977;BME280;36992;48.200;12.418;2023-03-26T08:26:09;95813.06;;;12.38;46.97
50977;BME280;36992;48.200;12.418;2023-03-26T08:28:51;95795.13;;;12.42;46.90
50977;BME280;36992;48.200;12.418;2023-03-26T08:31:27;95787.47;;;12.44;46.92
50977;BME280;36992;48.200;12.418;2023-03-26T08:33:58;95777.47;;;12.45;46.48
50977;BME280;36992;48.200;12.418;2023-03-26T08:36:25;95778.28;;;12.45;45.84
50977;BME280;36992;48.200;12.418;2023-03-26T08:38:52;95776.03;;;12.47;46.04
50977;BME280;36992;48.200;12.418;2023-03-26T08:44:48;95764.34;;;12.55;46.11
50977;BME280;36992;48.200;12.418;2023-03-26T08:50:47;95738.72;;;12.62;46.08
50977;BME280;36992;48.200;12.418;2023-03-26T08:53:41;95724.09;;;12.63;46.28
50977;BME280;36992;48.200;12.418;2023-03-26T08:56:19;95728.41;;;12.64;46.51
50977;BME280;36992;48.200;12.418;2023-03-26T09:02:10;95739.13;;;12.73;45.54
50977;BME280;36992;48.200;12.418;2023-03-26T09:05:13;95736.09;;;12.74;45.18
50977;BME280;36992;48.200;12.418;2023-03-26T09:08:14;95706.84;;;12.76;45.26
50977;BME280;36992;48.200;12.418;2023-03-26T09:10:51;95710.66;;;12.75;45.22
50977;BME280;36992;48.200;12.418;2023-03-26T09:13:34;95701.44;;;12.76;44.67
50977;BME280;36992;48.200;12.418;2023-03-26T09:16:28;95696.94;;;12.80;45.14
50977;BME280;36992;48.200;12.418;2023-03-26T09:19:32;95709.31;;;12.81;45.18
50977;BME280;36992;48.200;12.418;2023-03-26T09:25:40;95697.88;;;12.85;45.01
50977;BME280;36992;48.200;12.418;2023-03-26T09:34:29;95673.66;;;12.88;44.86
50977;BME280;36992;48.200;12.418;2023-03-26T09:37:09;95678.75;;;12.90;45.07
50977;BME280;36992;48.200;12.418;2023-03-26T09:39:48;95692.38;;;12.93;45.00
50977;BME280;36992;48.200;12.418;2023-03-26T09:42:23;95691.25;;;12.94;44.97
50977;BME280;36992;48.200;12.418;2023-03-26T09:50:53;95699.63;;;13.02;44.60
50977;BME280;36992;48.200;12.418;2023-03-26T09:53:44;95693.88;;;13.03;44.91
50977;BME280;36992;48.200;12.418;2023-03-26T09:56:22;95702.00;;;13.03;44.60
50977;BME280;36992;48.200;12.418;2023-03-26T09:59:02;95703.56;;;13.04;44.80
50977;BME280;36992;48.200;12.418;2023-03-26T10:01:39;95713.13;;;13.02;45.15
50977;BME280;36992;48.200;12.418;2023-03-26T10:04:35;95705.63;;;13.07;45.13
50977;BME280;36992;48.200;12.418;2023-03-26T10:07:20;95706.28;;;13.04;44.98
50977;BME280;36992;48.200;12.418;2023-03-26T10:10:00;95697.72;;;13.02;45.14
50977;BME280;36992;48.200;12.418;2023-03-26T10:12:32;95690.38;;;13.03;45.14
50977;BME280;36992;48.200;12.418;2023-03-26T10:15:20;95690.06;;;13.04;45.13
50977;BME280;36992;48.200;12.418;2023-03-26T10:17:57;95696.59;;;13.03;46.01
50977;BME280;36992;48.200;12.418;2023-03-26T10:20:48;95708.16;;;13.04;45.97
50977;BME280;36992;48.200;12.418;2023-03-26T10:23:28;95718.53;;;13.02;46.34
50977;BME280;36992;48.200;12.418;2023-03-26T10:26:29;95707.06;;;13.05;46.08
50977;BME280;36992;48.200;12.418;2023-03-26T10:29:19;95686.91;;;13.02;46.47
50977;BME280;36992;48.200;12.418;2023-03-26T10:31:54;95696.13;;;13.01;46.39
50977;BME280;36992;48.200;12.418;2023-03-26T10:34:48;95700.41;;;13.02;46.38
50977;BME280;36992;48.200;12.418;2023-03-26T10:37:25;95692.97;;;12.99;47.13
50977;BME280;36992;48.200;12.418;2023-03-26T10:40:08;95684.84;;;12.99;47.30
50977;BME280;36992;48.200;12.418;2023-03-26T10:42:58;95677.53;;;13.00;47.60
50977;BME280;36992;48.200;12.418;2023-03-26T10:45:34;95686.78;;;12.99;48.60
50977;BME280;36992;48.200;12.418;2023-03-26T10:48:31;95681.50;;;13.02;47.44
50977;BME280;36992;48.200;12.418;2023-03-26T10:51:24;95652.88;;;13.01;48.34
50977;BME280;36992;48.200;12.418;2023-03-26T10:53:57;95656.38;;;13.02;49.41
50977;BME280;36992;48.200;12.418;2023-03-26T10:56:31;95663.03;;;13.04;49.27
50977;BME280;36992;48.200;12.418;2023-03-26T10:59:05;95660.00;;;13.06;48.65
50977;BME280;36992;48.200;12.418;2023-03-26T11:01:39;95660.44;;;13.08;47.47
50977;BME280;36992;48.200;12.418;2023-03-26T11:04:19;95651.66;;;13.11;47.30
50977;BME280;36992;48.200;12.418;2023-03-26T11:06:53;95655.47;;;13.10;47.25
50977;BME280;36992;48.200;12.418;2023-03-26T11:09:30;95654.69;;;13.09;46.98
50977;BME280;36992;48.200;12.418;2023-03-26T11:12:08;95669.78;;;13.11;46.88
50977;BME280;36992;48.200;12.418;2023-03-26T11:14:45;95660.09;;;13.09;46.63
50977;BME280;36992;48.200;12.418;2023-03-26T11:17:27;95658.97;;;13.11;46.91
50977;BME280;36992;48.200;12.418;2023-03-26T11:20:07;95664.38;;;13.11;46.34
50977;BME280;36992;48.200;12.418;2023-03-26T11:22:41;95675.19;;;13.11;47.02
50977;BME280;36992;48.200;12.418;2023-03-26T11:25:25;95686.47;;;13.13;46.93
50977;BME280;36992;48.200;12.418;2023-03-26T11:28:07;95675.66;;;13.13;46.98
50977;BME280;36992;48.200;12.418;2023-03-26T11:30:39;95675.66;;;13.13;48.09
50977;BME280;36992;48.200;12.418;2023-03-26T11:33:12;95678.34;;;13.13;49.25
50977;BME280;36992;48.200;12.418;2023-03-26T11:35:45;95674.88;;;13.12;48.11
50977;BME280;36992;48.200;12.418;2023-03-26T11:38:16;95667.53;;;13.13;48.56
50977;BME280;36992;48.200;12.418;2023-03-26T11:40:46;95676.78;;;13.12;50.21
50977;BME280;36992;48.200;12.418;2023-03-26T11:43:18;95667.53;;;13.13;49.25
50977;BME280;36992;48.200;12.418;2023-03-26T11:45:47;95656.59;;;13.09;49.86
50977;BME280;36992;48.200;12.418;2023-03-26T11:48:18;95656.28;;;13.11;48.60
50977;BME280;36992;48.200;12.418;2023-03-26T11:50:54;95658.97;;;13.11;48.67
50977;BME280;36992;48.200;12.418;2023-03-26T11:53:27;95647.72;;;13.08;48.77
50977;BME280;36992;48.200;12.418;2023-03-26T11:55:59;95636.78;;;13.05;49.08
50977;BME280;36992;48.200;12.418;2023-03-26T11:58:37;95644.41;;;13.03;48.79
50977;BME280;36992;48.200;12.418;2023-03-26T12:01:12;95623.16;;;13.01;49.50
50977;BME280;36992;48.200;12.418;2023-03-26T12:03:39;95622.22;;;12.97;50.21
50977;BME280;36992;48.200;12.418;2023-03-26T12:06:21;95622.03;;;13.02;49.33
50977;BME280;36992;48.200;12.418;2023-03-26T12:08:50;95619.53;;;12.97;50.45
50977;BME280;36992;48.200;12.418;2023-03-26T12:11:17;95613.78;;;12.99;50.61
50977;BME280;36992;48.200;12.418;2023-03-26T12:13:51;95620.88;;;13.03;49.79
50977;BME280;36992;48.200;12.418;2023-03-26T12:16:19;95615.38;;;13.00;51.42
50977;BME280;36992;48.200;12.418;2023-03-26T12:18:58;95614.34;;;13.04;49.34
50977;BME280;36992;48.200;12.418;2023-03-26T12:21:27;95616.63;;;13.02;50.18
50977;BME280;36992;48.200;12.418;2023-03-26T12:23:56;95609.97;;;13.00;50.18
50977;BME280;36992;48.200;12.418;2023-03-26T12:26:36;95615.81;;;13.02;49.61
50977;BME280;36992;48.200;12.418;2023-03-26T12:29:07;95611.88;;;12.99;50.63
50977;BME280;36992;48.200;12.418;2023-03-26T12:31:54;95619.75;;;13.04;49.22
50977;BME280;36992;48.200;12.418;2023-03-26T12:34:22;95630.34;;;12.97;50.70
50977;BME280;36992;48.200;12.418;2023-03-26T12:36:57;95610.28;;;12.98;51.33
50977;BME280;36992;48.200;12.418;2023-03-26T12:39:33;95616.81;;;12.97;50.40
50977;BME280;36992;48.200;12.418;2023-03-26T12:42:00;95611.78;;;13.08;49.14
50977;BME280;36992;48.200;12.418;2023-03-26T12:44:29;95608.28;;;12.95;51.34
50977;BME280;36992;48.200;12.418;2023-03-26T12:47:08;95612.06;;;12.94;50.54
50977;BME280;36992;48.200;12.418;2023-03-26T12:49:36;95593.72;;;12.87;51.21
50977;BME280;36992;48.200;12.418;2023-03-26T12:52:18;95593.84;;;12.91;50.62
50977;BME280;36992;48.200;12.418;2023-03-26T12:54:53;95589.88;;;12.88;51.68
50977;BME280;36992;48.200;12.418;2023-03-26T12:57:23;95588.19;;;12.84;52.10
50977;BME280;36992;48.200;12.418;2023-03-26T13:00:17;95577.16;;;12.89;50.86
50977;BME280;36992;48.200;12.418;2023-03-26T13:02:51;95573.25;;;12.99;49.35
50977;BME280;36992;48.200;12.418;2023-03-26T13:05:51;95575.03;;;12.94;50.22
50977;BME280;36992;48.200;12.418;2023-03-26T13:08:38;95568.06;;;12.93;50.47
50977;BME280;36992;48.200;12.418;2023-03-26T13:11:10;95575.34;;;12.93;51.84
50977;BME280;36992;48.200;12.418;2023-03-26T13:13:59;95563.88;;;12.96;51.26
50977;BME280;36992;48.200;12.418;2023-03-26T13:16:35;95554.97;;;12.95;51.11
50977;BME280;36992;48.200;12.418;2023-03-26T13:19:08;95547.66;;;12.96;51.09
50977;BME280;36992;48.200;12.418;2023-03-26T13:21:47;95554.66;;;12.97;52.25
50977;BME280;36992;48.200;12.418;2023-03-26T13:24:28;95544.28;;;12.99;51.38
50977;BME280;36992;48.200;12.418;2023-03-26T13:27:07;95539.34;;;13.01;51.38
50977;BME280;36992;48.200;12.418;2023-03-26T13:29:43;95546.66;;;13.01;50.93
50977;BME280;36992;48.200;12.418;2023-03-26T13:32:19;95553.63;;;13.02;51.34
50977;BME280;36992;48.200;12.418;2023-03-26T13:35:02;95537.84;;;13.04;50.99
50977;BME280;36992;48.200;12.418;2023-03-26T13:37:36;95540.91;;;13.02;51.45
50977;BME280;36992;48.200;12.418;2023-03-26T13:40:15;95532.44;;;13.04;50.79
50977;BME280;36992;48.200;12.418;2023-03-26T13:42:55;95528.53;;;13.01;51.21